23 de mayo de 2022

Hora Código Tiempo Temp. Visibilidad Nubes Viento METAR/SPECI
03:00
V
10 °C 14 km 3.800 ft 360°   360° 17 kt METAR CYHU 230700Z AUTO 36017KT 9SM BKN038 10/02 A3021 RMK SLP233
02:00
V
11 °C 14 km 3.800 ft 340°   340° 10 17 kt METAR CYHU 230600Z AUTO 34010G17KT 9SM OVC038 11/04 A3020 RMK SLP228
01:00
V
11 °C 14 km 4.600 ft 350°   350° 10 16 kt METAR CYHU 230500Z AUTO 35010G16KT 9SM BKN046 11/04 A3018 RMK SLP222
00:00
V
13 °C 14 km 3.800 ft 350°   350° 13 18 kt METAR CYHU 230400Z AUTO 35013G18KT 9SM OVC038 13/06 A3016 RMK SLP214

22 de mayo de 2022

Hora Código Tiempo Temp. Visibilidad Nubes Viento METAR/SPECI
23:00
V
14 °C 14 km 3.400 ft 330°   330° 11 17 kt METAR CYHU 230300Z AUTO 33011G17KT 9SM OVC034 14/07 A3013 RMK SLP204
22:00
V
14 °C 14 km - 310°   310° 10 15 kt METAR CYHU 230200Z AUTO 31010G15KT 9SM SCT033 14/09 A3010 RMK SLP194
21:00
V
15 °C 14 km 4.400 ft 300°   300° 9 kt METAR CYHU 230100Z AUTO 30009KT 9SM FEW027 SCT032 BKN044 OVC150 15/10 A3006 RMK SLP180
20:56
V
15 °C 14 km 3.200 ft 300°   300° 10 15 kt METAR CYHU 230056Z AUTO 30010G15KT 9SM FEW021 SCT027 BKN032 OVC150 15/10 A3005 RMK SLP180
20:10
V
15 °C 14 km 3.600 ft 280°   280° 12 19 kt METAR CYHU 230010Z AUTO 28012G19KT 9SM FEW018 SCT027 OVC036 15/12 A3002 RMK SLP170
20:00
V
15 °C 14 km 3.200 ft 270°   270° 14 19 kt METAR CYHU 230000Z AUTO 27014G19KT 9SM -RA SCT018 BKN032 OVC039 15/12 A3002 RMK SLP167
19:37
M
16 °C 14 km 2.400 ft 280°   280° 12 20 kt METAR CYHU 222337Z AUTO 28012G20KT 9SM SCT016 BKN024 OVC033 16/12 A3001 RMK SLP165 DENSITY ALT 100FT
19:00
V
15 °C 14 km 4.400 ft 260°   260° 15 kt METAR CYHU 222300Z AUTO 26015KT 9SM OVC044 15/13 A2999 RMK SLP156 DENSITY ALT 100FT
18:24
V
17 °C 14 km 10.000 ft 250°   250° 11 kt METAR CYHU 222224Z AUTO 25011KT 9SM FEW034 SCT044 BKN100 BKN120 17/13 A2995 RMK SLP145 DENSITY ALT 300FT
18:07
V
17 °C 13 km 4.200 ft 260°   260° 7 kt METAR CYHU 222207Z AUTO 26007KT 8SM -RA BKN042 OVC050 17/12 A2995 RMK SLP144 DENSITY ALT 300FT
18:00
V
17 °C 14 km 4.000 ft 260°   260° 11 kt METAR CYHU 222200Z AUTO 26011KT 9SM OVC040 17/12 A2995 RMK SLP145 DENSITY ALT 300FT
17:00
V
17 °C 14 km 3.000 ft 320°   320° 12 21 kt METAR CYHU 222100Z AUTO 32012G21KT 9SM OVC030 17/12 A2993 RMK SLP136 DENSITY ALT 400FT
16:27
V
18 °C 14 km 11.000 ft 300°   300° 14 22 kt METAR CYHU 222027Z AUTO 30014G22KT 9SM FEW032 SCT046 BKN110 18/12 A2990 RMK SLP126 DENSITY ALT 600FT
16:10
V
19 °C 14 km 5.000 ft 310°   310° 18 25 kt METAR CYHU 222010Z AUTO 31018G25KT 9SM -RA FEW033 SCT043 BKN050 OVC110 19/13 A2989 RMK SLP123 DENSITY ALT 600FT
16:00
V
20 °C 14 km 5.000 ft 300°   300° 19 29 kt METAR CYHU 222000Z AUTO 30019G29KT 9SM FEW034 BKN050 OVC060 20/13 A2988 RMK SLP121 DENSITY ALT 800FT
15:44
V
21 °C 14 km 5.500 ft 310°   310° 21 27 kt METAR CYHU 221944Z AUTO 31021G27KT 9SM FEW034 BKN055 BKN073 OVC130 21/15 A2986 RMK WSHFT AT 1935Z PRESRR SLP115 DENSITY ALT 1000FT
15:28
V
24 °C 14 km 8.700 ft 250°   250° 17 25 kt METAR CYHU 221928Z AUTO 25017G25KT 9SM SCT040 SCT055 BKN087 BKN130 24/18 A2984 RMK SLP106 DENSITY ALT 1200FT
15:00
V
24 °C 14 km 4.400 ft 230°   230° 11 18 kt METAR CYHU 221900Z AUTO 23011G18KT 9SM -RA FEW037 BKN044 BKN066 OVC089 24/19 A2983 RMK SLP105 DENSITY ALT 1300FT
14:59
V
24 °C 14 km 4.700 ft 230°   230° 10 18 kt METAR CYHU 221859Z AUTO 23010G18KT 9SM -RA SCT039 BKN047 BKN060 OVC089 24/19 A2983 RMK SLP105 DENSITY ALT 1300FT
14:00
V
26 °C 14 km - 240°   240° 13 18 kt METAR CYHU 221800Z AUTO 24013G18KT 9SM FEW060 SCT110 SCT130 26/18 A2984 RMK SLP108 DENSITY ALT 1500FT
13:00
V
26 °C 14 km - 240°   240° 7 kt METAR CYHU 221700Z AUTO 24007KT 9SM FEW120 26/17 A2986 RMK SLP113 DENSITY ALT 1500FT
12:00
V
25 °C 14 km - 250°   250° 13 kt METAR CYHU 221600Z AUTO 25013KT 9SM CLR 25/16 A2988 RMK SLP119 DENSITY ALT 1400FT
11:00
V
23 °C 14 km - 250°   250° 17 22 kt METAR CYHU 221500Z AUTO 25017G22KT 9SM FEW120 23/15 A2990 RMK SLP128 DENSITY ALT 1100FT
10:00
V
22 °C 14 km - 240°   240° 15 kt METAR CYHU 221400Z AUTO 24015KT 9SM FEW018 22/17 A2991 RMK SLP132 DENSITY ALT 1000FT
09:00
V
22 °C 14 km - 230°   230° 13 20 kt METAR CYHU 221300Z AUTO 23013G20KT 9SM SCT020 22/17 A2993 RMK SLP136 DENSITY ALT 900FT
08:00
V
21 °C 14 km 3.000 ft 230°   230° 8 kt METAR CYHU 221200Z AUTO 23008KT 9SM BKN030 BKN120 21/18 A2993 RMK SLP136 DENSITY ALT 800FT
07:00
V
19 °C 14 km 13.000 ft 210°   210° 6 kt METAR CYHU 221100Z AUTO 21006KT 9SM BKN130 BKN150 19/18 A2992 RMK SLP133 DENSITY ALT 700FT
06:00
V
19 °C 14 km 13.000 ft 210°   210° 5 kt METAR CYHU 221000Z AUTO 21005KT 9SM OVC130 19/18 A2991 RMK SLP131 DENSITY ALT 600FT
05:00
V
19 °C 14 km 14.000 ft 190°   190° 7 kt METAR CYHU 220900Z AUTO 19007KT 9SM BKN140 BKN170 OVC200 19/18 A2992 RMK SLP135 DENSITY ALT 600FT
04:00
V
18 °C 14 km 16.000 ft 180°   180° 10 kt METAR CYHU 220800Z AUTO 18010KT 100V190 9SM FEW140 BKN160 OVC180 18/17 A2994 RMK SLP139 DENSITY ALT 500FT
03:00
V
20 °C 14 km 14.000 ft 270°   270° 4 kt METAR CYHU 220700Z AUTO 27004KT 240V320 9SM BKN140 BKN160 20/16 A2993 RMK SLP136 DENSITY ALT 700FT
02:00
V
20 °C 14 km 23.000 ft 230°   230° 8 kt METAR CYHU 220600Z AUTO 23008KT 9SM FEW076 SCT093 BKN230 20/16 A2996 RMK SLP148 DENSITY ALT 700FT
01:00
V
20 °C 14 km 13.000 ft 280°   280° 4 kt METAR CYHU 220500Z AUTO 28004KT 9SM FEW066 SCT092 SCT110 BKN130 20/16 A2994 RMK SLP140 DENSITY ALT 700FT
00:00
V
19 °C 14 km - 240°   240° 3 kt METAR CYHU 220400Z AUTO 24003KT 9SM CLR 19/15 A2994 RMK LTNG DIST SE S SLP139 DENSITY ALT 700FT

21 de mayo de 2022

Hora Código Tiempo Temp. Visibilidad Nubes Viento METAR/SPECI
23:00
V
20 °C 14 km - 220°   220° 5 kt METAR CYHU 220300Z AUTO 22005KT 9SM CLR 20/15 A2993 RMK SLP138 DENSITY ALT 800FT
22:00
V
21 °C 14 km - 250°   250° 5 kt METAR CYHU 220200Z AUTO 25005KT 9SM CLR 21/15 A2992 RMK SLP133 DENSITY ALT 900FT
21:00
V
22 °C 14 km - 250°   250° 8 kt METAR CYHU 220100Z AUTO 25008KT 9SM CLR 22/15 A2989 RMK SLP124 DENSITY ALT 1000FT
20:00
V
24 °C 14 km - 270°   270° 14 23 kt METAR CYHU 220000Z AUTO 27014G23KT 9SM CLR 24/15 A2988 RMK SLP119 DENSITY ALT 1200FT
19:59
V
15 °C 14 km 3.200 ft 270°   270° 14 20 kt METAR CYHU 222359Z AUTO 27014G20KT 9SM -RA SCT018 BKN032 OVC039 15/12 A3002 RMK SLP168
19:00
V
26 °C 14 km - Var   000° 0 kt METAR CYHU 212300Z AUTO /////KT 9SM CLR 26/14 A2985 RMK SLP110 DENSITY ALT 1500FT
18:16
V
27 °C 14 km - 300°   300° 19 kt METAR CYHU 212216Z AUTO 30019KT 9SM CLR 27/16 A2982 RMK LTNG DIST NE SE S WSHFT AT 2206Z PRESRR SLP099 DENSITY ALT 1600FT
18:00
V
28 °C 14 km - 230°   230° 13 19 kt METAR CYHU 212200Z AUTO 23013G19KT 9SM FEW055 28/19 A2981 RMK SLP095 DENSITY ALT 1700FT
17:00
V
30 °C 14 km - 240°   240° 27 32 kt METAR CYHU 212100Z AUTO 24027G32KT 9SM FEW091 30/19 A2982 RMK LTNG DIST NW SLP101 DENSITY ALT 2000FT
16:00
V
32 °C 14 km - 250°   250° 22 31 kt METAR CYHU 212000Z AUTO 25022G31KT 9SM FEW076 32/19 A2978 RMK SLP087 DENSITY ALT 2300FT
15:48
V
32 °C 14 km - 250°   250° 21 26 kt METAR CYHU 211948Z AUTO 25021G26KT 9SM SCT076 SCT085 32/20 A2978 RMK SLP086 DENSITY ALT 2300FT
15:00
V
31 °C 14 km 8.400 ft 210°   210° 10 kt METAR CYHU 211900Z AUTO 21010KT 9SM FEW055 OVC084 31/21 A2978 RMK SLP088 DENSITY ALT 2100FT
14:00
V
31 °C 14 km 5.500 ft 230°   230° 12 18 kt METAR CYHU 211800Z AUTO 23012G18KT 170V230 9SM BKN055 BKN085 31/20 A2980 RMK SLP092 DENSITY ALT 2100FT
13:00
V
31 °C 14 km - 190°   190° 11 19 kt METAR CYHU 211700Z AUTO 19011G19KT 9SM CLR 31/20 A2979 RMK SLP089 DENSITY ALT 2100FT
12:00
V
30 °C 14 km - 210°   210° 12 kt METAR CYHU 211600Z AUTO 21012KT 170V240 9SM CLR 30/20 A2980 RMK SLP092 DENSITY ALT 2000FT
11:00
V
27 °C 14 km - 170°   170° 12 17 kt METAR CYHU 211500Z AUTO 17012G17KT 9SM CLR 27/19 A2981 RMK SLP096 DENSITY ALT 1700FT
10:00
V
25 °C 14 km - 180°   180° 13 18 kt METAR CYHU 211400Z AUTO 18013G18KT 9SM CLR 25/18 A2982 RMK SLP099 DENSITY ALT 1400FT
09:00
V
23 °C 14 km - 180°   180° 15 22 kt METAR CYHU 211300Z AUTO 18015G22KT 9SM CLR 23/18 A2983 RMK SLP103 DENSITY ALT 1200FT
08:00
V
21 °C 14 km 6.600 ft 180°   180° 13 kt METAR CYHU 211200Z AUTO 18013KT 9SM OVC066 21/17 A2982 RMK SLP099 DENSITY ALT 900FT
07:00
V
20 °C 14 km - 170°   170° 15 20 kt METAR CYHU 211100Z AUTO 17015G20KT 9SM SCT060 20/16 A2979 RMK SLP091 DENSITY ALT 900FT
06:00
V
20 °C 14 km 6.000 ft 180°   180° 16 21 kt METAR CYHU 211000Z AUTO 18016G21KT 9SM BKN060 BKN089 20/16 A2978 RMK SLP086 DENSITY ALT 900FT
05:00
V
20 °C 14 km 6.000 ft 180°   180° 17 24 kt METAR CYHU 210900Z AUTO 18017G24KT 9SM FEW045 BKN060 BKN074 OVC120 20/16 A2976 RMK SLP079 DENSITY ALT 900FT
04:00
V
20 °C 14 km 5.500 ft 180°   180° 15 22 kt METAR CYHU 210800Z AUTO 18015G22KT 9SM BKN055 OVC072 20/16 A2974 RMK SLP074 DENSITY ALT 900FT
03:00
V
20 °C 14 km 6.000 ft 180°   180° 17 24 kt METAR CYHU 210700Z AUTO 18017G24KT 9SM BKN060 20/15 A2974 RMK SLP073 DENSITY ALT 900FT
Datos más antiguos

Descarga nuestra aplicación

Acceso fácil a todo el tiempo de la aviación en tu teléfono móvil y tableta.
Con muchas funciones no disponibles en el sitio web, como la compatibilidad sin conexión y una lista personal de aeropuertos.

Nosotros y terceros seguimos tu comportamiento en Internet en nuestro sitio web con cookies. Si continúas, asumimos que estás de acuerdo con nuestra política de cookies. Más información